Time;durP1;ratioP1;P1;durP2;ratioP2;P2;SDS_P1;SDS_P2;PMS_P1;PMS_P2;Temp;Humidity;BMP_temperature;BMP_pressure;BME280_temperature;BME280_humidity;BME280_pressure;Samples;Min_cycle;Max_cycle;Signal;HPM_P1;HPM_P2
2021/08/15 00:02:11;;;;;;;;;;;;;;;-145.93;100.00;63033.56;5114580;28;19927;-79
2021/08/15 00:04:38;;;;;;;;;;;;;;;-145.93;100.00;63033.56;5114460;28;19949;-79
2021/08/15 00:07:06;;;;;;;;;;;;;;;-145.93;100.00;63033.56;5114788;28;19930;-79
2021/08/15 00:09:33;;;;;;;;;;;;;;;-145.93;100.00;63033.56;5114508;28;19993;-79
2021/08/15 00:11:59;;;;;;;;;;;;;;;-145.93;100.00;63033.56;5114435;28;19930;-79
2021/08/15 00:14:26;;;;;;;;;;;;;;;-145.93;100.00;63033.56;5114437;28;19930;-79
2021/08/15 00:16:53;;;;;;;;;;;;;;;-145.93;100.00;63033.56;5114574;28;19924;-79
2021/08/15 00:19:19;;;;;;;;;;;;;;;-145.93;100.00;63033.56;5113950;28;19924;-79
2021/08/15 00:21:46;;;;;;;;;;;;;;;-145.93;100.00;63033.56;5114482;28;19924;-79
2021/08/15 00:24:14;;;;;;;;;;;;;;;-145.93;100.00;63033.56;5114046;28;20297;-79
2021/08/15 00:26:40;;;;;;;;;;;;;;;-145.93;100.00;63033.56;5114019;28;19928;-79
2021/08/15 00:29:07;;;;;;;;;;;;;;;-145.93;100.00;63033.56;5114078;28;19924;-79
2021/08/15 00:31:34;;;;;;;;;;;;;;;-145.93;100.00;63033.56;5113819;28;20424;-79
2021/08/15 00:34:00;;;;;;;;;;;;;;;-145.93;100.00;63033.56;5113048;28;19931;-78
2021/08/15 00:36:27;;;;;;;;;;;;;;;-145.93;100.00;63033.56;5114007;28;19946;-79
2021/08/15 00:38:54;;;;;;;;;;;;;;;-145.93;100.00;63033.56;5113904;28;19924;-79
2021/08/15 00:41:23;;;;;;;;;;;;;;;-145.93;100.00;63033.56;5113826;28;19924;-78
2021/08/15 00:43:50;;;;;;;;;;;;;;;-145.93;100.00;63033.56;5114061;28;19949;-78
2021/08/15 00:46:16;;;;;;;;;;;;;;;-145.93;100.00;63033.56;5113695;28;19931;-78
2021/08/15 00:48:43;;;;;;;;;;;;;;;-145.93;100.00;63033.56;5114069;28;20305;-77
2021/08/15 00:51:10;;;;;;;;;;;;;;;-145.93;100.00;63033.56;5113934;28;19923;-78
2021/08/15 00:53:37;;;;;;;;;;;;;;;-145.93;100.00;63033.56;5113453;28;19969;-78
2021/08/15 00:56:04;;;;;;;;;;;;;;;-145.93;100.00;63033.56;5113946;28;19954;-78
2021/08/15 00:58:32;;;;;;;;;;;;;;;-145.93;100.00;63033.56;5113323;28;19924;-78
2021/08/15 01:00:59;;;;;;;;;;;;;;;-145.93;100.00;63033.56;5113409;28;19923;-78
2021/08/15 01:03:26;;;;;;;;;;;;;;;-145.93;100.00;63033.56;5113111;28;20374;-79
2021/08/15 01:05:53;;;;;;;;;;;;;;;-145.93;100.00;63033.56;5113345;28;19930;-78
2021/08/15 01:08:20;;;;;;;;;;;;;;;-145.93;100.00;63033.56;5113180;28;20491;-78
2021/08/15 01:10:46;;;;;;;;;;;;;;;-145.93;100.00;63033.56;5113317;28;20282;-78
2021/08/15 01:13:13;;;;;;;;;;;;;;;-145.93;100.00;63033.56;5112886;28;19924;-79
2021/08/15 01:15:41;;;;;;;;;;;;;;;-145.93;100.00;63033.56;5113595;28;19924;-77
2021/08/15 01:18:18;;;;;;;;;;;;;;;-145.93;100.00;63033.56;5113233;28;19931;-78
2021/08/15 01:20:46;;;;;;;;;;;;;;;-145.93;100.00;63033.56;5113222;28;19934;-78
2021/08/15 01:23:12;;;;;;;;;;;;;;;-145.93;100.00;63033.56;5112742;28;19928;-78
2021/08/15 01:25:39;;;;;;;;;;;;;;;-145.93;100.00;63033.56;5113018;28;19930;-78
2021/08/15 01:28:06;;;;;;;;;;;;;;;-145.93;100.00;63033.56;5113321;28;19946;-78
2021/08/15 01:30:34;;;;;;;;;;;;;;;-145.93;100.00;63033.56;5113119;28;19930;-78
2021/08/15 01:33:01;;;;;;;;;;;;;;;-145.93;100.00;63033.56;5113294;28;19931;-78
2021/08/15 01:35:28;;;;;;;;;;;;;;;-145.93;100.00;63033.56;5112793;28;19923;-78
2021/08/15 01:37:55;;;;;;;;;;;;;;;-145.93;100.00;63033.56;5113233;28;19924;-78
2021/08/15 01:40:21;;;;;;;;;;;;;;;-145.93;100.00;63033.56;5112637;28;20002;-78
2021/08/15 01:42:48;;;;;;;;;;;;;;;-145.93;100.00;63033.56;5112856;28;19931;-78
2021/08/15 01:45:15;;;;;;;;;;;;;;;-145.93;100.00;63033.56;5112505;28;20289;-78
2021/08/15 01:47:43;;;;;;;;;;;;;;;-145.93;100.00;63033.56;5112899;28;19924;-78
2021/08/15 01:50:10;;;;;;;;;;;;;;;-145.93;100.00;63033.56;5112800;28;20393;-78
2021/08/15 01:52:36;;;;;;;;;;;;;;;-145.93;100.00;63033.56;5112932;28;19924;-78
2021/08/15 01:55:04;;;;;;;;;;;;;;;-145.93;100.00;63033.56;5112759;28;19928;-78
2021/08/15 01:57:30;;;;;;;;;;;;;;;-145.93;100.00;63033.56;5112722;28;19930;-78
2021/08/15 01:59:57;;;;;;;;;;;;;;;-145.93;100.00;63033.56;5113010;28;19931;-78
2021/08/15 02:02:24;;;;;;;;;;;;;;;-145.93;100.00;63033.56;5112709;28;19924;-78
2021/08/15 02:04:52;;;;;;;;;;;;;;;-145.93;100.00;63033.56;5113031;28;20290;-78
2021/08/15 02:07:18;;;;;;;;;;;;;;;-145.93;100.00;63033.56;5112746;28;19930;-78
2021/08/15 02:09:45;;;;;;;;;;;;;;;-145.93;100.00;63033.56;5112518;28;19938;-78
2021/08/15 02:12:11;;;;;;;;;;;;;;;-145.93;100.00;63033.56;5112540;28;20289;-78
2021/08/15 02:14:38;;;;;;;;;;;;;;;-145.93;100.00;63033.56;5112631;28;19931;-78
2021/08/15 02:17:05;;;;;;;;;;;;;;;-145.93;100.00;63033.56;5112899;28;19924;-78
2021/08/15 02:19:33;;;;;;;;;;;;;;;-145.93;100.00;63033.56;5112202;28;19939;-78
2021/08/15 02:22:01;;;;;;;;;;;;;;;-145.93;100.00;63033.56;5112848;28;19977;-78
2021/08/15 02:24:28;;;;;;;;;;;;;;;-145.93;100.00;63033.56;5112072;28;19924;-78
2021/08/15 02:26:54;;;;;;;;;;;;;;;-145.93;100.00;63033.56;5112519;28;19930;-78
2021/08/15 02:29:21;;;;;;;;;;;;;;;-145.93;100.00;63033.56;5112505;28;19924;-78
2021/08/15 02:31:48;;;;;;;;;;;;;;;-145.93;100.00;63033.56;5112410;28;19924;-79
2021/08/15 02:34:14;;;;;;;;;;;;;;;-145.93;100.00;63033.56;5112226;28;20405;-78
2021/08/15 02:36:41;;;;;;;;;;;;;;;-145.93;100.00;63033.56;5112678;28;19930;-79
2021/08/15 02:39:09;;;;;;;;;;;;;;;-145.93;100.00;63033.56;5112676;28;19924;-78
2021/08/15 02:41:35;;;;;;;;;;;;;;;-145.93;100.00;63033.56;5112451;28;19924;-78
2021/08/15 02:44:02;;;;;;;;;;;;;;;-145.93;100.00;63033.56;5112289;28;20381;-78
2021/08/15 02:46:29;;;;;;;;;;;;;;;-145.93;100.00;63033.56;5112348;28;19924;-78
2021/08/15 02:48:55;;;;;;;;;;;;;;;-145.93;100.00;63033.56;5112146;28;19923;-78
2021/08/15 02:51:22;;;;;;;;;;;;;;;-145.93;100.00;63033.56;5112336;28;19924;-78
2021/08/15 02:53:49;;;;;;;;;;;;;;;-145.93;100.00;63033.56;5112564;28;19924;-78
2021/08/15 02:56:17;;;;;;;;;;;;;;;-145.93;100.00;63033.56;5112051;28;19930;-78
2021/08/15 02:58:44;;;;;;;;;;;;;;;-145.93;100.00;63033.56;5115739;28;20430;-78
2021/08/15 03:01:10;;;;;;;;;;;;;;;-145.93;100.00;63033.56;5116064;28;19924;-78
2021/08/15 03:03:37;;;;;;;;;;;;;;;-145.93;100.00;63033.56;5115938;28;20038;-78
2021/08/15 03:06:04;;;;;;;;;;;;;;;-145.93;100.00;63033.56;5116059;28;19934;-78
2021/08/15 03:08:30;;;;;;;;;;;;;;;-145.93;100.00;63033.56;5115441;28;19931;-78
2021/08/15 03:10:57;;;;;;;;;;;;;;;-145.93;100.00;63033.56;5115888;28;19924;-78
2021/08/15 03:13:25;;;;;;;;;;;;;;;-145.93;100.00;63033.56;5115354;28;20442;-78
2021/08/15 03:15:52;;;;;;;;;;;;;;;-145.93;100.00;63033.56;5115807;28;20289;-79
2021/08/15 03:18:18;;;;;;;;;;;;;;;-145.93;100.00;63033.56;5115236;28;20006;-78
2021/08/15 03:20:45;;;;;;;;;;;;;;;-145.93;100.00;63033.56;5115473;28;20302;-78
2021/08/15 03:23:11;;;;;;;;;;;;;;;-145.93;100.00;63033.56;5115235;28;19924;-78
2021/08/15 03:25:38;;;;;;;;;;;;;;;-145.93;100.00;63033.56;5115179;28;19924;-78
2021/08/15 03:28:05;;;;;;;;;;;;;;;-145.93;100.00;63033.56;5115605;28;19924;-78
2021/08/15 03:30:33;;;;;;;;;;;;;;;-145.93;100.00;63033.56;5115318;28;19927;-78
2021/08/15 03:33:00;;;;;;;;;;;;;;;-145.93;100.00;63033.56;5115085;28;19924;-78
2021/08/15 03:35:27;;;;;;;;;;;;;;;-145.93;100.00;63033.56;5114917;28;19924;-78
2021/08/15 03:37:53;;;;;;;;;;;;;;;-145.93;100.00;63033.56;5115382;28;20122;-78
2021/08/15 03:40:20;;;;;;;;;;;;;;;-145.93;100.00;63033.56;5114748;28;19924;-78
2021/08/15 03:42:46;;;;;;;;;;;;;;;-145.93;100.00;63033.56;5114951;28;20266;-78
2021/08/15 03:45:13;;;;;;;;;;;;;;;-145.93;100.00;63033.56;5115001;28;19931;-78
2021/08/15 03:47:41;;;;;;;;;;;;;;;-145.93;100.00;63033.56;5114870;28;20382;-78
2021/08/15 03:50:08;;;;;;;;;;;;;;;-145.93;100.00;63033.56;5115114;28;19931;-78
2021/08/15 03:52:38;;;;;;;;;;;;;;;-145.93;100.00;63033.56;5114872;28;19923;-78
2021/08/15 03:55:05;;;;;;;;;;;;;;;-145.93;100.00;63033.56;5114972;28;19945;-78
2021/08/15 03:57:31;;;;;;;;;;;;;;;-145.93;100.00;63033.56;5114776;28;19923;-78
2021/08/15 03:59:58;;;;;;;;;;;;;;;-145.93;100.00;63033.56;5114731;28;20402;-78
2021/08/15 04:02:24;;;;;;;;;;;;;;;-145.93;100.00;63033.56;5114519;28;19927;-79
2021/08/15 04:04:52;;;;;;;;;;;;;;;-145.93;100.00;63033.56;5114576;28;19924;-78
2021/08/15 04:07:19;;;;;;;;;;;;;;;-145.93;100.00;63033.56;5114023;28;20400;-77
2021/08/15 04:09:45;;;;;;;;;;;;;;;-145.93;100.00;63033.56;5114665;28;19924;-78
2021/08/15 04:12:12;;;;;;;;;;;;;;;-145.93;100.00;63033.56;5114488;28;19923;-78
2021/08/15 04:14:39;;;;;;;;;;;;;;;-145.93;100.00;63033.56;5114352;28;19930;-78
2021/08/15 04:17:05;;;;;;;;;;;;;;;-145.93;100.00;63033.56;5114667;28;19924;-79
2021/08/15 04:19:32;;;;;;;;;;;;;;;-145.93;100.00;63033.56;5114083;28;19928;-79
2021/08/15 04:22:00;;;;;;;;;;;;;;;-145.93;100.00;63033.56;5114482;28;19924;-79
2021/08/15 04:24:26;;;;;;;;;;;;;;;-145.93;100.00;63033.56;5113653;28;20689;-79
2021/08/15 04:26:53;;;;;;;;;;;;;;;-145.93;100.00;63033.56;5114550;28;19924;-79
2021/08/15 04:29:20;;;;;;;;;;;;;;;-145.93;100.00;63033.56;5113886;28;19930;-79
2021/08/15 04:31:46;;;;;;;;;;;;;;;-145.93;100.00;63033.56;5114376;28;19923;-79
2021/08/15 04:34:13;;;;;;;;;;;;;;;-145.93;100.00;63033.56;5113674;28;19923;-79
2021/08/15 04:36:39;;;;;;;;;;;;;;;-145.93;100.00;63033.56;5114264;28;20377;-79
2021/08/15 04:39:07;;;;;;;;;;;;;;;-145.93;100.00;63033.56;5114290;28;19923;-79
2021/08/15 04:41:34;;;;;;;;;;;;;;;-145.93;100.00;63033.56;5113983;28;19942;-78
2021/08/15 04:44:00;;;;;;;;;;;;;;;-145.93;100.00;63033.56;5113667;28;20297;-79
2021/08/15 04:46:27;;;;;;;;;;;;;;;-145.93;100.00;63033.56;5113709;28;19931;-79
2021/08/15 04:48:54;;;;;;;;;;;;;;;-145.93;100.00;63033.56;5113729;28;20301;-78
2021/08/15 04:51:20;;;;;;;;;;;;;;;-145.93;100.00;63033.56;5113465;28;19935;-79
2021/08/15 04:53:47;;;;;;;;;;;;;;;-145.93;100.00;63033.56;5113696;28;19931;-79
2021/08/15 04:56:15;;;;;;;;;;;;;;;-145.93;100.00;63033.56;5113657;28;19946;-79
2021/08/15 04:58:42;;;;;;;;;;;;;;;-145.93;100.00;63033.56;5113805;28;19924;-79
2021/08/15 05:01:08;;;;;;;;;;;;;;;-145.93;100.00;63033.56;5113523;28;19924;-79
2021/08/15 05:03:36;;;;;;;;;;;;;;;-145.93;100.00;63033.56;5113476;28;19935;-78
2021/08/15 05:06:03;;;;;;;;;;;;;;;-145.93;100.00;63033.56;5113431;28;20286;-79
2021/08/15 05:08:29;;;;;;;;;;;;;;;-145.93;100.00;63033.56;5113076;28;20401;-79
2021/08/15 05:10:58;;;;;;;;;;;;;;;-145.93;100.00;63033.56;5113724;28;19931;-79
2021/08/15 05:13:26;;;;;;;;;;;;;;;-145.93;100.00;63033.56;5113361;28;19928;-79
2021/08/15 05:15:53;;;;;;;;;;;;;;;-145.93;100.00;63033.56;5113199;28;20369;-79
2021/08/15 05:18:19;;;;;;;;;;;;;;;-145.93;100.00;63033.56;5112939;28;19924;-80
2021/08/15 05:20:46;;;;;;;;;;;;;;;-145.93;100.00;63033.56;5112890;28;19939;-80
2021/08/15 05:23:13;;;;;;;;;;;;;;;-145.93;100.00;63033.56;5112856;28;20301;-80
2021/08/15 05:25:39;;;;;;;;;;;;;;;-145.93;100.00;63033.56;5112873;28;19931;-79
2021/08/15 05:28:07;;;;;;;;;;;;;;;-145.93;100.00;63033.56;5113403;28;19930;-79
2021/08/15 05:30:35;;;;;;;;;;;;;;;-145.93;100.00;63033.56;5113119;28;20030;-79
2021/08/15 05:33:02;;;;;;;;;;;;;;;-145.93;100.00;63033.56;5112892;28;20293;-79
2021/08/15 05:35:28;;;;;;;;;;;;;;;-145.93;100.00;63033.56;5113075;28;19924;-79
2021/08/15 05:37:55;;;;;;;;;;;;;;;-145.93;100.00;63033.56;5112950;28;20443;-79
2021/08/15 05:40:21;;;;;;;;;;;;;;;-145.93;100.00;63033.56;5112665;28;19930;-76
2021/08/15 05:42:48;;;;;;;;;;;;;;;-145.93;100.00;63033.56;5112942;28;19924;-78
2021/08/15 05:45:15;;;;;;;;;;;;;;;-145.93;100.00;63033.56;5112570;28;19930;-77
2021/08/15 05:47:43;;;;;;;;;;;;;;;-145.93;100.00;63033.56;5113205;28;19923;-78
2021/08/15 05:50:10;;;;;;;;;;;;;;;-145.93;100.00;63033.56;5112776;28;19924;-79
2021/08/15 05:52:37;;;;;;;;;;;;;;;-145.93;100.00;63033.56;5113113;28;19946;-79
2021/08/15 05:55:04;;;;;;;;;;;;;;;-145.93;100.00;63033.56;5113066;28;19961;-78
2021/08/15 05:57:31;;;;;;;;;;;;;;;-145.93;100.00;63033.56;5112483;28;19951;-77
2021/08/15 05:59:57;;;;;;;;;;;;;;;-145.93;100.00;63033.56;5112746;28;20316;-78
2021/08/15 06:02:24;;;;;;;;;;;;;;;-145.93;100.00;63033.56;5114138;28;19924;-77
2021/08/15 06:04:52;;;;;;;;;;;;;;;-145.93;100.00;63033.56;5112805;28;19923;-79
2021/08/15 06:07:19;;;;;;;;;;;;;;;-145.93;100.00;63033.56;5112451;28;19924;-80
2021/08/15 06:09:45;;;;;;;;;;;;;;;-145.93;100.00;63033.56;5113052;28;19928;-79
2021/08/15 06:12:12;;;;;;;;;;;;;;;-145.93;100.00;63033.56;5112231;28;19924;-80
2021/08/15 06:14:38;;;;;;;;;;;;;;;-145.93;100.00;63033.56;5112934;28;19924;-80
2021/08/15 06:17:05;;;;;;;;;;;;;;;-145.93;100.00;63033.56;5112591;28;19924;-79
2021/08/15 06:19:32;;;;;;;;;;;;;;;-145.93;100.00;63033.56;5112570;28;19927;-80
2021/08/15 06:22:00;;;;;;;;;;;;;;;-145.93;100.00;63033.56;5112497;28;20292;-79
2021/08/15 06:24:27;;;;;;;;;;;;;;;-145.93;100.00;63033.56;5111917;28;19923;-76
2021/08/15 06:26:53;;;;;;;;;;;;;;;-145.93;100.00;63033.56;5112823;28;19923;-77
2021/08/15 06:29:20;;;;;;;;;;;;;;;-145.93;100.00;63033.56;5112245;28;19931;-76
2021/08/15 06:31:46;;;;;;;;;;;;;;;-145.93;100.00;63033.56;5114586;28;20366;-76
2021/08/15 06:34:13;;;;;;;;;;;;;;;-145.93;100.00;63033.56;5116416;28;19923;-75
2021/08/15 06:36:40;;;;;;;;;;;;;;;-145.93;100.00;63033.56;5116687;28;19930;-75
2021/08/15 06:39:08;;;;;;;;;;;;;;;-145.93;100.00;63033.56;5116237;28;19924;-76
2021/08/15 06:41:35;;;;;;;;;;;;;;;-145.93;100.00;63033.56;5116320;28;20358;-76
2021/08/15 06:44:01;;;;;;;;;;;;;;;-145.93;100.00;63033.56;5116401;28;19924;-76
2021/08/15 06:46:28;;;;;;;;;;;;;;;-145.93;100.00;63033.56;5115748;28;19927;-76
2021/08/15 06:48:54;;;;;;;;;;;;;;;-145.93;100.00;63033.56;5116385;28;19924;-77
2021/08/15 06:51:21;;;;;;;;;;;;;;;-145.93;100.00;63033.56;5115693;28;19923;-77
2021/08/15 06:53:47;;;;;;;;;;;;;;;-145.93;100.00;63033.56;5115893;28;20400;-77
2021/08/15 06:56:15;;;;;;;;;;;;;;;-145.93;100.00;63033.56;5115997;28;19924;-78
2021/08/15 06:58:42;;;;;;;;;;;;;;;-145.93;100.00;63033.56;5116263;28;19931;-78
2021/08/15 07:01:09;;;;;;;;;;;;;;;-145.93;100.00;63033.56;5115916;28;19924;-76
2021/08/15 07:03:35;;;;;;;;;;;;;;;-145.93;100.00;63033.56;5115577;28;19926;-76
2021/08/15 07:06:02;;;;;;;;;;;;;;;-145.93;100.00;63033.56;5115808;28;19923;-78
2021/08/15 07:08:28;;;;;;;;;;;;;;;-145.93;100.00;63033.56;5115808;28;19924;-74
2021/08/15 07:10:55;;;;;;;;;;;;;;;-145.93;100.00;63033.56;5115693;28;19924;-76
2021/08/15 07:13:23;;;;;;;;;;;;;;;-145.93;100.00;63033.56;5115721;28;19924;-77
2021/08/15 07:15:50;;;;;;;;;;;;;;;-145.93;100.00;63033.56;5115815;28;19977;-75
2021/08/15 07:18:17;;;;;;;;;;;;;;;-145.93;100.00;63033.56;5115177;28;19928;-79
2021/08/15 07:20:43;;;;;;;;;;;;;;;-145.93;100.00;63033.56;5115892;28;19924;-77
2021/08/15 07:23:10;;;;;;;;;;;;;;;-145.93;100.00;63033.56;5115392;28;19924;-76
2021/08/15 07:25:37;;;;;;;;;;;;;;;-145.93;100.00;63033.56;5115181;28;20030;-79
2021/08/15 07:28:04;;;;;;;;;;;;;;;-145.93;100.00;63033.56;5115661;28;19923;-75
2021/08/15 07:30:33;;;;;;;;;;;;;;;-145.93;100.00;63033.56;5114958;28;20374;-77
2021/08/15 07:33:01;;;;;;;;;;;;;;;-145.93;100.00;63033.56;5115563;28;19985;-77
2021/08/15 07:35:28;;;;;;;;;;;;;;;-145.93;100.00;63033.56;5115217;28;19935;-78
2021/08/15 07:37:55;;;;;;;;;;;;;;;-145.93;100.00;63033.56;5115015;28;20382;-75
2021/08/15 07:40:22;;;;;;;;;;;;;;;-145.93;100.00;63033.56;5114753;28;19924;-79
2021/08/15 07:42:50;;;;;;;;;;;;;;;-145.93;100.00;63033.56;5114669;28;19924;-77
2021/08/15 07:45:17;;;;;;;;;;;;;;;-145.93;100.00;63033.56;5114590;28;20419;-78
2021/08/15 07:47:45;;;;;;;;;;;;;;;-145.93;100.00;63033.56;5115214;28;19924;-78
2021/08/15 07:50:12;;;;;;;;;;;;;;;-145.93;100.00;63033.56;5114523;28;19924;-78
2021/08/15 07:52:39;;;;;;;;;;;;;;;-145.93;100.00;63033.56;5114720;28;19924;-77
2021/08/15 07:55:06;;;;;;;;;;;;;;;-145.93;100.00;63033.56;5115043;28;19924;-78
2021/08/15 07:57:32;;;;;;;;;;;;;;;-145.93;100.00;63033.56;5114789;28;19924;-75
2021/08/15 07:59:59;;;;;;;;;;;;;;;-145.93;100.00;63033.56;5114735;28;20378;-79
2021/08/15 08:02:26;;;;;;;;;;;;;;;-145.93;100.00;63033.56;5114664;28;19923;-76
2021/08/15 08:04:54;;;;;;;;;;;;;;;-145.93;100.00;63033.56;5114457;28;19923;-78
2021/08/15 08:07:22;;;;;;;;;;;;;;;-145.93;100.00;63033.56;5114353;28;20305;-75
2021/08/15 08:09:49;;;;;;;;;;;;;;;-145.93;100.00;63033.56;5114481;28;19924;-76
2021/08/15 08:12:16;;;;;;;;;;;;;;;-145.93;100.00;63033.56;5114464;28;19937;-78
2021/08/15 08:14:43;;;;;;;;;;;;;;;-145.93;100.00;63033.56;5114462;28;19924;-79
2021/08/15 08:17:12;;;;;;;;;;;;;;;-145.93;100.00;63033.56;5114599;28;19924;-76
2021/08/15 08:19:39;;;;;;;;;;;;;;;-145.93;100.00;63033.56;5114518;28;19929;-74
2021/08/15 08:22:07;;;;;;;;;;;;;;;-145.93;100.00;63033.56;5114594;28;19923;-73
2021/08/15 08:24:34;;;;;;;;;;;;;;;-145.93;100.00;63033.56;5113743;28;20366;-74
2021/08/15 08:27:00;;;;;;;;;;;;;;;-145.93;100.00;63033.56;5114107;28;20395;-73
2021/08/15 08:29:27;;;;;;;;;;;;;;;-145.93;100.00;63033.56;5114187;28;19931;-73
2021/08/15 08:31:54;;;;;;;;;;;;;;;-145.93;100.00;63033.56;5114309;28;19923;-68
2021/08/15 08:34:20;;;;;;;;;;;;;;;-145.93;100.00;63033.56;5113804;28;19924;-70
2021/08/15 08:36:47;;;;;;;;;;;;;;;-145.93;100.00;63033.56;5114282;28;19923;-71
2021/08/15 08:39:15;;;;;;;;;;;;;;;-145.93;100.00;63033.56;5113642;28;19970;-70
2021/08/15 08:41:41;;;;;;;;;;;;;;;-145.93;100.00;63033.56;5113927;28;20393;-69
2021/08/15 08:44:09;;;;;;;;;;;;;;;-145.93;100.00;63033.56;5114114;28;19928;-71
2021/08/15 08:46:36;;;;;;;;;;;;;;;-145.93;100.00;63033.56;5113702;28;19930;-71
2021/08/15 08:49:03;;;;;;;;;;;;;;;-145.93;100.00;63033.56;5114036;28;19931;-74
2021/08/15 08:51:30;;;;;;;;;;;;;;;-145.93;100.00;63033.56;5113392;28;20408;-72
2021/08/15 08:53:57;;;;;;;;;;;;;;;-145.93;100.00;63033.56;5113208;28;20290;-69
2021/08/15 08:56:26;;;;;;;;;;;;;;;-145.93;100.00;63033.56;5112897;28;19931;-73
2021/08/15 08:58:52;;;;;;;;;;;;;;;-145.93;100.00;63033.56;5113817;28;19924;-71
2021/08/15 09:01:19;;;;;;;;;;;;;;;-145.93;100.00;63033.56;5113244;28;20305;-70
2021/08/15 09:03:45;;;;;;;;;;;;;;;-145.93;100.00;63033.56;5113730;28;19935;-74
2021/08/15 09:06:19;;;;;;;;;;;;;;;-145.93;100.00;63033.56;5113147;28;20495;-70
2021/08/15 09:08:45;;;;;;;;;;;;;;;-145.93;100.00;63033.56;5113685;28;19935;-69
2021/08/15 09:11:13;;;;;;;;;;;;;;;-145.93;100.00;63033.56;5113005;28;19924;-70
2021/08/15 09:13:42;;;;;;;;;;;;;;;-145.93;100.00;63033.56;5113203;28;19924;-71
2021/08/15 09:16:09;;;;;;;;;;;;;;;-145.93;100.00;63033.56;5113129;28;19924;-73
2021/08/15 09:18:35;;;;;;;;;;;;;;;-145.93;100.00;63033.56;5113313;28;19930;-73
2021/08/15 09:21:02;;;;;;;;;;;;;;;-145.93;100.00;63033.56;5113195;28;19924;-75
2021/08/15 09:23:30;;;;;;;;;;;;;;;-145.93;100.00;63033.56;5112892;28;20301;-73
2021/08/15 09:26:10;;;;;;;;;;;;;;;-145.93;100.00;63033.56;5112852;28;19924;-77
2021/08/15 09:28:37;;;;;;;;;;;;;;;-145.93;100.00;63033.56;5112687;28;20374;-76
2021/08/15 09:31:15;;;;;;;;;;;;;;;-145.93;100.00;63033.56;5113352;28;19946;-74
2021/08/15 09:33:42;;;;;;;;;;;;;;;-145.93;100.00;63033.56;5113323;28;19924;-74
2021/08/15 09:36:09;;;;;;;;;;;;;;;-145.93;100.00;63033.56;5113342;28;19934;-73
2021/08/15 09:38:42;;;;;;;;;;;;;;;-145.93;100.00;63033.56;5112924;28;19924;-72
2021/08/15 09:41:21;;;;;;;;;;;;;;;-145.93;100.00;63033.56;5113194;28;19927;-71
2021/08/15 09:43:48;;;;;;;;;;;;;;;-145.93;100.00;63033.56;5113314;28;19985;-71
2021/08/15 09:46:16;;;;;;;;;;;;;;;-145.93;100.00;63033.56;5112814;28;19924;-71
2021/08/15 09:48:43;;;;;;;;;;;;;;;-145.93;100.00;63033.56;5112742;28;19931;-71
2021/08/15 09:51:14;;;;;;;;;;;;;;;-145.93;100.00;63033.56;5112850;28;20297;-72
2021/08/15 09:53:42;;;;;;;;;;;;;;;-145.93;100.00;63033.56;5112687;28;19923;-72
2021/08/15 09:56:09;;;;;;;;;;;;;;;-145.93;100.00;63033.56;5112828;28;19935;-71
2021/08/15 09:58:36;;;;;;;;;;;;;;;-145.93;100.00;63033.56;5112723;28;19931;-72
2021/08/15 10:01:03;;;;;;;;;;;;;;;-145.93;100.00;63033.56;5113106;28;19924;-72
2021/08/15 10:03:31;;;;;;;;;;;;;;;-145.93;100.00;63033.56;5112460;28;19923;-71
2021/08/15 10:05:58;;;;;;;;;;;;;;;-145.93;100.00;63033.56;5113866;28;19923;-72
2021/08/15 10:08:25;;;;;;;;;;;;;;;-145.93;100.00;63033.56;5116550;28;20293;-71
2021/08/15 10:10:52;;;;;;;;;;;;;;;-145.93;100.00;63033.56;5116992;28;19930;-71
2021/08/15 10:13:18;;;;;;;;;;;;;;;-145.93;100.00;63033.56;5116720;28;19947;-72
2021/08/15 10:15:53;;;;;;;;;;;;;;;-145.93;100.00;63033.56;5116721;28;20382;-73
2021/08/15 10:18:21;;;;;;;;;;;;;;;-145.93;100.00;63033.56;5116647;28;19924;-71
2021/08/15 10:20:49;;;;;;;;;;;;;;;-145.93;100.00;63033.56;5116794;28;19924;-72
2021/08/15 10:23:18;;;;;;;;;;;;;;;-145.93;100.00;63033.56;5116475;28;19924;-71
2021/08/15 10:25:45;;;;;;;;;;;;;;;-145.93;100.00;63033.56;5116196;28;19928;-72
2021/08/15 10:28:31;;;;;;;;;;;;;;;-145.93;100.00;63033.56;5116412;28;20297;-72
2021/08/15 10:30:59;;;;;;;;;;;;;;;-145.93;100.00;63033.56;5116376;28;19924;-73
2021/08/15 10:33:27;;;;;;;;;;;;;;;-145.93;100.00;63033.56;5115955;28;19924;-73
2021/08/15 10:36:12;;;;;;;;;;;;;;;-145.93;100.00;63033.56;5116287;28;19924;-71
2021/08/15 10:38:40;;;;;;;;;;;;;;;-145.93;100.00;63033.56;5116638;28;19924;-72
2021/08/15 10:41:06;;;;;;;;;;;;;;;-145.93;100.00;63033.56;5116289;28;20414;-73
2021/08/15 10:43:51;;;;;;;;;;;;;;;-145.93;100.00;63033.56;5116253;28;19931;-72
2021/08/15 10:46:19;;;;;;;;;;;;;;;-145.93;100.00;63033.56;5116008;28;19946;-72
2021/08/15 10:48:52;;;;;;;;;;;;;;;-145.93;100.00;63033.56;5116233;28;19931;-71
2021/08/15 10:51:37;;;;;;;;;;;;;;;-145.93;100.00;63033.56;5115845;28;20382;-71
2021/08/15 10:54:05;;;;;;;;;;;;;;;-145.93;100.00;63033.56;5116207;28;19924;-71
2021/08/15 10:56:46;;;;;;;;;;;;;;;-145.93;100.00;63033.56;5115904;28;19931;-71
2021/08/15 10:59:32;;;;;;;;;;;;;;;-145.93;100.00;63033.56;5115043;28;19931;-70
2021/08/15 11:02:08;;;;;;;;;;;;;;;-145.93;100.00;63033.56;5116039;28;19923;-72
2021/08/15 11:04:35;;;;;;;;;;;;;;;-145.93;100.00;63033.56;5115485;28;19931;-71
2021/08/15 11:07:02;;;;;;;;;;;;;;;-145.93;100.00;63033.56;5115786;28;19924;-72
2021/08/15 11:09:53;;;;;;;;;;;;;;;-145.93;100.00;63033.56;5115452;28;19924;-70
2021/08/15 11:12:20;;;;;;;;;;;;;;;-145.93;100.00;63033.56;5115221;28;19927;-78
2021/08/15 11:14:58;;;;;;;;;;;;;;;-145.93;100.00;63033.56;5115739;28;19931;-78
2021/08/15 11:17:25;;;;;;;;;;;;;;;-145.93;100.00;63033.56;5114506;28;19939;-75
2021/08/15 11:19:52;;;;;;;;;;;;;;;-145.93;100.00;63033.56;5115462;28;20454;-75
2021/08/15 11:22:25;;;;;;;;;;;;;;;-145.93;100.00;63033.56;5115041;28;20507;-76
2021/08/15 11:24:57;;;;;;;;;;;;;;;-145.93;100.00;63033.56;5115183;28;19928;-73
2021/08/15 11:27:25;;;;;;;;;;;;;;;-145.93;100.00;63033.56;5115415;28;19924;-73
2021/08/15 11:29:52;;;;;;;;;;;;;;;-145.93;100.00;63033.56;5115166;28;20378;-71
2021/08/15 11:32:19;;;;;;;;;;;;;;;-145.93;100.00;63033.56;5115291;28;20298;-74
2021/08/15 11:34:53;;;;;;;;;;;;;;;-145.93;100.00;63033.56;5115424;28;19927;-74
2021/08/15 11:37:20;;;;;;;;;;;;;;;-145.93;100.00;63033.56;5115250;28;19928;-72
2021/08/15 11:39:47;;;;;;;;;;;;;;;-145.93;100.00;63033.56;5115274;28;19931;-77
2021/08/15 11:42:18;;;;;;;;;;;;;;;-145.93;100.00;63033.56;5114844;28;19976;-76
2021/08/15 11:44:51;;;;;;;;;;;;;;;-145.93;100.00;63033.56;5113885;28;19923;-76
2021/08/15 11:47:19;;;;;;;;;;;;;;;-145.93;100.00;63033.56;5114008;28;20050;-76
2021/08/15 11:49:46;;;;;;;;;;;;;;;-145.93;100.00;63033.56;5113266;28;19970;-76
2021/08/15 11:52:14;;;;;;;;;;;;;;;-145.93;100.00;63033.56;5113960;28;19924;-76
2021/08/15 11:54:41;;;;;;;;;;;;;;;-145.93;100.00;63033.56;5113712;28;19928;-76
2021/08/15 11:57:11;;;;;;;;;;;;;;;-145.93;100.00;63033.56;5114123;28;19976;-76
2021/08/15 11:59:40;;;;;;;;;;;;;;;-145.93;100.00;63033.56;5113998;28;20024;-75
2021/08/15 12:02:08;;;;;;;;;;;;;;;-145.93;100.00;63033.56;5115026;28;20004;-76
2021/08/15 12:04:34;;;;;;;;;;;;;;;-145.93;100.00;63033.56;5114652;28;19980;-76
2021/08/15 12:07:01;;;;;;;;;;;;;;;-145.93;100.00;63033.56;5114485;28;19927;-77
2021/08/15 12:09:30;;;;;;;;;;;;;;;-145.93;100.00;63033.56;5114297;28;20297;-76
2021/08/15 12:11:57;;;;;;;;;;;;;;;-145.93;100.00;63033.56;5114438;28;20350;-76
2021/08/15 12:14:32;;;;;;;;;;;;;;;-145.93;100.00;63033.56;5114103;28;19924;-76
2021/08/15 12:17:00;;;;;;;;;;;;;;;-145.93;100.00;63033.56;5114655;28;19923;-76
2021/08/15 12:19:27;;;;;;;;;;;;;;;-145.93;100.00;63033.56;5114415;28;20013;-76
2021/08/15 12:21:54;;;;;;;;;;;;;;;-145.93;100.00;63033.56;5114616;28;19931;-76